createdAt,value
2023-04-02T00:04:04.254Z,9.25
2023-04-02T00:09:16.037Z,9.28
2023-04-02T00:14:26.618Z,9.32
2023-04-02T00:20:00.908Z,9.08
2023-04-02T00:25:12.661Z,9.06
2023-04-02T00:30:16.663Z,8.95
2023-04-02T00:35:28.900Z,9.09
2023-04-02T00:40:32.678Z,9.09
2023-04-02T00:45:38.945Z,9.02
2023-04-02T00:50:44.942Z,9.09
2023-04-02T00:55:49.293Z,9.08
2023-04-02T01:00:52.770Z,9.15
2023-04-02T01:12:34.288Z,9.20
2023-04-02T01:17:54.706Z,9.18
2023-04-02T01:23:17.155Z,9.35
2023-04-02T01:28:32.245Z,9.11
2023-04-02T01:33:36.079Z,8.88
2023-04-02T01:38:58.048Z,8.92
2023-04-02T01:44:12.388Z,8.93
2023-04-02T01:49:20.826Z,8.99
2023-04-02T01:54:26.123Z,9.01
2023-04-02T01:59:29.629Z,8.88
2023-04-02T02:04:37.112Z,8.95
2023-04-02T02:09:42.901Z,8.94
2023-04-02T02:14:50.662Z,8.99
2023-04-02T02:19:57.514Z,9.00
2023-04-02T02:25:11.727Z,8.98
2023-04-02T02:36:14.022Z,8.98
2023-04-02T02:41:19.502Z,8.95
2023-04-02T02:46:25.481Z,8.91
2023-04-02T02:51:44.354Z,8.93
2023-04-02T02:56:58.691Z,9.06
2023-04-02T03:02:02.830Z,9.01
2023-04-02T03:07:09.397Z,9.07
2023-04-02T03:12:33.525Z,9.01
2023-04-02T03:17:55.998Z,9.01
2023-04-02T03:23:37.793Z,8.90
2023-04-02T03:28:50.309Z,8.93
2023-04-02T03:34:02.396Z,8.94
2023-04-02T03:39:11.858Z,8.87
2023-04-02T03:44:27.749Z,8.91
2023-04-02T03:50:08.041Z,8.85
2023-04-02T03:55:19.505Z,8.86
2023-04-02T04:00:45.103Z,8.83
2023-04-02T04:05:56.375Z,8.82
2023-04-02T04:11:07.856Z,8.76
2023-04-02T04:16:16.904Z,8.74
2023-04-02T04:21:37.847Z,8.71
2023-04-02T04:27:05.405Z,8.70
2023-04-02T04:32:18.292Z,8.70
2023-04-02T04:37:40.129Z,8.72
2023-04-02T04:42:48.884Z,8.78
2023-04-02T04:47:57.837Z,8.80
2023-04-02T04:53:15.830Z,8.82
2023-04-02T04:58:22.975Z,8.83
2023-04-02T05:03:39.161Z,8.81
2023-04-02T05:08:49.313Z,8.84
2023-04-02T05:13:55.050Z,8.81
2023-04-02T05:19:19.109Z,8.89
2023-04-02T05:24:55.928Z,8.89
2023-04-02T05:30:25.339Z,8.86
2023-04-02T05:35:41.289Z,9.10
2023-04-02T05:40:48.202Z,9.48
2023-04-02T05:45:57.786Z,9.55
2023-04-02T05:51:01.402Z,9.54
2023-04-02T05:56:21.995Z,9.40
2023-04-02T06:01:33.863Z,9.63
2023-04-02T06:06:42.033Z,9.63
2023-04-02T06:11:52.766Z,9.52
2023-04-02T06:16:55.785Z,9.62
2023-04-02T06:22:35.994Z,9.48
2023-04-02T06:27:42.141Z,9.70
2023-04-02T06:32:46.560Z,9.77
2023-04-02T06:37:53.223Z,9.78
2023-04-02T06:43:08.069Z,9.81
2023-04-02T06:48:31.488Z,10.05
2023-04-02T06:53:39.237Z,10.22
2023-04-02T06:58:42.652Z,10.21
2023-04-02T07:04:10.554Z,10.15
2023-04-02T07:09:17.226Z,10.37
2023-04-02T07:14:24.681Z,10.44
2023-04-02T07:19:27.368Z,10.45
2023-04-02T07:24:33.194Z,10.53
2023-04-02T07:29:36.165Z,10.73
2023-04-02T07:34:39.760Z,10.88
2023-04-02T07:39:42.490Z,11.02
2023-04-02T07:44:45.461Z,10.69
2023-04-02T07:49:48.124Z,10.51
2023-04-02T07:54:51.373Z,10.71
2023-04-02T08:00:13.890Z,10.93
2023-04-02T08:05:16.528Z,11.03
2023-04-02T08:10:19.645Z,11.26
2023-04-02T08:15:22.246Z,11.40
2023-04-02T08:20:25.218Z,11.49
2023-04-02T08:25:28.615Z,11.58
2023-04-02T08:30:31.554Z,11.62
2023-04-02T08:35:34.858Z,11.56
2023-04-02T08:40:41.308Z,11.55
2023-04-02T08:46:07.317Z,11.46
2023-04-02T08:51:31.097Z,11.48
2023-04-02T08:56:41.625Z,11.55
2023-04-02T09:02:14.773Z,11.63
2023-04-02T09:07:18.266Z,11.69
2023-04-02T09:12:27.672Z,11.75
2023-04-02T09:17:39.737Z,11.72
2023-04-02T09:22:51.497Z,11.70
2023-04-02T09:27:56.818Z,11.69
2023-04-02T09:33:07.960Z,11.62
2023-04-02T09:38:22.461Z,11.72
2023-04-02T09:43:32.546Z,11.72
2023-04-02T09:48:55.110Z,11.72
2023-04-02T09:54:03.692Z,11.55
2023-04-02T09:59:18.087Z,11.72
2023-04-02T10:04:45.321Z,11.58
2023-04-02T10:09:59.080Z,11.52
2023-04-02T10:15:04.084Z,11.53
2023-04-02T10:20:21.229Z,11.84
2023-04-02T10:25:28.757Z,11.98
2023-04-02T10:30:53.386Z,12.03
2023-04-02T10:36:11.505Z,12.18
2023-04-02T10:41:30.349Z,12.26
2023-04-02T10:46:54.359Z,12.29
2023-04-02T10:52:13.703Z,12.35
2023-04-02T10:57:35.573Z,12.24
2023-04-02T11:02:57.010Z,12.50
2023-04-02T11:08:17.227Z,12.65
2023-04-02T11:13:50.960Z,12.48
2023-04-02T11:19:30.517Z,12.67
2023-04-02T11:24:53.690Z,12.76
2023-04-02T11:30:16.008Z,12.91
2023-04-02T11:35:33.849Z,12.98
2023-04-02T11:40:43.178Z,12.94
2023-04-02T11:45:52.675Z,13.23
2023-04-02T11:50:56.799Z,13.38
2023-04-02T11:56:18.381Z,13.55
2023-04-02T12:01:44.520Z,13.78
2023-04-02T12:06:55.009Z,13.86
2023-04-02T12:12:01.135Z,14.15
2023-04-02T12:17:08.503Z,13.87
2023-04-02T12:22:28.776Z,13.90
2023-04-02T12:27:31.929Z,14.07
2023-04-02T12:32:34.614Z,14.30
2023-04-02T12:37:37.422Z,14.20
2023-04-02T12:42:40.220Z,14.14
2023-04-02T12:47:46.132Z,14.02
2023-04-02T12:52:51.681Z,13.91
2023-04-02T12:57:59.056Z,13.92
2023-04-02T13:03:10.428Z,13.79
2023-04-02T13:08:41.736Z,13.66
2023-04-02T13:13:46.854Z,13.66
2023-04-02T13:18:50.819Z,13.74
2023-04-02T13:23:53.710Z,13.75
2023-04-02T13:29:04.986Z,13.81
2023-04-02T13:34:07.917Z,13.59
2023-04-02T13:39:10.847Z,13.64
2023-04-02T13:44:34.045Z,13.31
2023-04-02T13:49:37.100Z,13.14
2023-04-02T13:54:53.131Z,12.92
2023-04-02T13:59:55.698Z,12.89
2023-04-02T14:05:33.254Z,13.42
2023-04-02T14:11:10.884Z,13.20
2023-04-02T14:16:28.234Z,13.35
2023-04-02T14:22:04.273Z,13.44
2023-04-02T14:27:27.525Z,13.08
2023-04-02T14:32:48.314Z,13.59
2023-04-02T14:38:27.701Z,13.54
2023-04-02T14:43:39.321Z,13.61
2023-04-02T14:48:51.382Z,13.81
2023-04-02T14:54:11.334Z,13.29
2023-04-02T14:59:39.652Z,13.22
2023-04-02T15:04:46.817Z,13.59
2023-04-02T15:10:04.829Z,12.93
2023-04-02T15:15:40.554Z,12.86
2023-04-02T15:21:20.697Z,13.08
2023-04-02T15:27:09.313Z,13.38
2023-04-02T15:32:33.097Z,12.75
2023-04-02T15:37:53.443Z,12.51
2023-04-02T15:43:19.051Z,12.54
2023-04-02T15:48:26.799Z,12.37
2023-04-02T15:53:39.603Z,12.35
2023-04-02T15:58:51.651Z,12.21
2023-04-02T16:04:19.276Z,12.55
2023-04-02T16:09:44.117Z,12.30
2023-04-02T16:14:48.782Z,12.29
2023-04-02T16:20:02.070Z,12.12
2023-04-02T16:25:16.603Z,12.23
2023-04-02T16:30:56.026Z,12.21
2023-04-02T16:36:12.446Z,11.83
2023-04-02T16:41:45.967Z,12.04
2023-04-02T16:47:19.995Z,11.99
2023-04-02T16:52:51.576Z,11.51
2023-04-02T16:58:21.564Z,11.52
2023-04-02T17:04:02.082Z,11.20
2023-04-02T17:09:09.287Z,11.44
2023-04-02T17:14:24.572Z,11.36
2023-04-02T17:19:28.853Z,11.49
2023-04-02T17:24:49.158Z,11.50
2023-04-02T17:29:54.793Z,11.45
2023-04-02T17:34:58.291Z,11.45
2023-04-02T17:40:27.116Z,10.86
2023-04-02T17:46:03.879Z,10.73
2023-04-02T17:51:32.019Z,10.81
2023-04-02T17:57:10.645Z,11.82
2023-04-02T18:02:37.905Z,11.15
2023-04-02T18:07:52.569Z,11.14
2023-04-02T18:13:16.075Z,10.60
2023-04-02T18:18:44.863Z,10.46
2023-04-02T18:24:08.695Z,10.38
2023-04-02T18:29:20.865Z,10.30
2023-04-02T18:34:45.176Z,10.02
2023-04-02T18:39:53.796Z,10.74
2023-04-02T18:45:04.139Z,10.73
2023-04-02T18:50:16.639Z,10.78
2023-04-02T18:55:31.018Z,10.29
2023-04-02T19:00:36.784Z,10.71
2023-04-02T19:05:48.329Z,10.59
2023-04-02T19:11:14.015Z,10.18
2023-04-02T19:16:35.303Z,9.81
2023-04-02T19:22:11.994Z,10.24
2023-04-02T19:27:29.809Z,10.36
2023-04-02T19:33:10.941Z,9.83
2023-04-02T19:39:04.121Z,9.95
2023-04-02T19:44:12.631Z,10.07
2023-04-02T19:49:23.003Z,9.89
2023-04-02T19:54:25.636Z,9.76
2023-04-02T19:59:28.180Z,9.32
2023-04-02T20:04:31.046Z,9.91
2023-04-02T20:09:33.755Z,10.84
2023-04-02T20:14:36.471Z,10.53
2023-04-02T20:19:39.474Z,11.29
2023-04-02T20:24:42.843Z,11.83
2023-04-02T20:29:45.441Z,11.70
2023-04-02T20:34:48.320Z,12.34
2023-04-02T20:39:51.188Z,11.59
2023-04-02T20:44:53.956Z,12.27
2023-04-02T20:49:56.523Z,12.28
2023-04-02T20:54:59.072Z,12.42
2023-04-02T21:00:03.885Z,12.60
2023-04-02T21:05:06.814Z,11.85
2023-04-02T21:10:10.513Z,11.09
2023-04-02T21:15:13.662Z,11.76
2023-04-02T21:20:16.455Z,12.42
2023-04-02T21:25:20.160Z,12.91
2023-04-02T21:30:25.744Z,13.29
2023-04-02T21:35:28.292Z,12.84
2023-04-02T21:40:31.009Z,13.09
2023-04-02T21:45:33.766Z,12.91
2023-04-02T21:50:36.750Z,12.77
2023-04-02T21:55:39.930Z,12.89
2023-04-02T22:00:42.563Z,12.55
2023-04-02T22:05:45.171Z,12.65
2023-04-02T22:10:47.634Z,12.52
2023-04-02T22:15:50.500Z,12.52
2023-04-02T22:20:57.303Z,12.68
2023-04-02T22:26:01.103Z,13.03
2023-04-02T22:31:10.317Z,12.15
2023-04-02T22:36:14.239Z,11.34
2023-04-02T22:41:19.567Z,11.05
2023-04-02T22:46:22.947Z,10.95
2023-04-02T22:51:27.795Z,9.98
2023-04-02T22:56:35.484Z,9.89
2023-04-02T23:01:38.358Z,9.78
2023-04-02T23:06:41.357Z,9.57
2023-04-02T23:11:43.925Z,9.88
2023-04-02T23:16:46.715Z,9.74
2023-04-02T23:21:49.512Z,9.40
2023-04-02T23:26:52.066Z,9.50
2023-04-02T23:31:54.899Z,9.01
2023-04-02T23:36:57.440Z,9.31
2023-04-02T23:42:00.859Z,8.81
2023-04-02T23:47:03.981Z,8.64
2023-04-02T23:52:06.611Z,8.93
2023-04-02T23:57:10.557Z,8.97
